Latest Coastal Weather Observations for Low Isles

IDQ60701

Issued at 3:51 pm EST Monday 30 March 2015 (issued every 10 minutes, with the page automatically refreshed every 10 minutes)

About coastal observations | Map of coastal stations | Coastal observations for QLD | Marine services | Other Formats
Station Details ID: 031037 Name: LOW ISLES LIGHTHOUSE Lat: -16.38 Lon: 145.56 Height: 2.9 m
Data from the previous 72 hours. | See also: Recent months at Low Isles
Date/Time
EST
Temp

°C
Wind Pressure Rain
since 9am
mm
Weather Cloud Vis
km
Sea
Height
m
Swell
Dir
 
Speed
knots
Gust
knots
hPa Trend Height
m
Period
s
Dir
30/03:30pm 29.8 SE 16 20 1013.8 - 0.2 - - - - - - -
30/03:00pm 29.7 SE 17 22 1013.8 - 0.2 Haze Mostly clear 15 - - - -
30/02:30pm 30.3 SE 17 20 1014.1 - 0.2 - - - - - - -
30/02:00pm 30.6 SE 17 21 1014.3 - 0.2 - - - - - - -
30/01:30pm 30.2 SE 18 23 1014.7 - 0.2 - - - - - - -
30/01:00pm 30.0 SE 20 23 1015.0 - 0.2 - - - - - - -
30/12:30pm 29.9 SE 20 24 1015.4 - 0.2 - - - - - - -
30/12:00pm 30.3 ESE 19 22 1015.7 - 0.2 - - - - - - -
30/11:30am 29.9 ESE 19 25 1016.0 - 0.2 - - - - - - -
30/11:00am 29.5 SE 19 23 1016.4 - 0.2 - - - - - - -
30/10:30am 29.3 ESE 19 24 1016.6 - 0.2 - - - - - - -
30/10:00am 28.3 SE 19 24 1016.6 - 0.0 - - - - - - -
30/09:55am 28.0 ESE 21 24 1016.6 - 0.0 - - - - - - -
30/09:30am 26.6 SSE 22 26 1016.7 - 0.0 - - - - - - -
30/09:00am 27.6 SSE 17 19 1016.5 - 11.2 Distant precip. Partly cloudy 16 - - - -
30/08:30am 27.6 SSE 14 18 1016.4 - 11.2 - - - - - - -
30/08:00am 27.4 ESE 15 19 1015.9 - 11.2 - - - - - - -
30/07:30am 27.0 ESE 19 23 1015.6 - 11.2 - - - - - - -
30/07:00am 27.0 SE 18 24 1015.4 - 11.2 - - - - - - -
30/06:30am 27.1 SE 20 23 1015.2 - 11.2 - - - - - - -
30/06:00am 27.2 SE 21 28 1014.7 - 11.2 - - - - - - -
30/05:57am 27.0 SE 20 28 1014.7 - 11.2 - - - - - - -
30/05:30am 27.0 SSE 17 19 1014.4 - 11.2 - - - - - - -
30/05:00am 27.1 SSE 19 23 1014.1 - 11.2 - - - - - - -
30/04:48am 27.2 S 19 21 1014.0 - 11.2 - - - - - - -
30/04:30am 27.4 SE 21 25 1013.8 - 11.2 - - - - - - -
30/04:00am 27.2 SE 22 25 1013.6 - 11.2 - - - - - - -
30/03:30am 26.9 SE 21 26 1013.4 - 11.2 - - - - - - -
30/03:00am 26.7 SE 19 24 1013.4 - 11.2 - - - - - - -
30/02:30am 26.7 SE 21 25 1013.8 - 11.2 - - - - - - -
30/02:00am 26.3 ESE 17 22 1014.2 - 11.0 - - - - - - -
30/01:30am 26.0 ESE 18 22 1014.7 - 11.0 - - - - - - -
30/01:00am 25.6 ESE 19 23 1015.1 - 11.0 - - - - - - -
30/12:30am 25.1 E 20 26 1015.3 - 11.0 - - - - - - -
30/12:00am 24.9 E 22 31 1015.7 - 11.0 - - - - - - -
 
Date/Time
EST
Temp

°C
Wind Pressure Rain
since 9am
mm
Weather Cloud Vis
km
Sea
Height
m
Swell
Dir
 
Speed
knots
Gust
knots
hPa Trend Height
m
Period
s
Dir
29/11:39pm 24.9 ESE 16 26 1016.0 - 10.4 - - - - - - -
29/11:35pm 24.9 ESE 17 21 1016.1 - 10.4 - - - - - - -
29/11:30pm 24.9 SE 25 31 1016.1 - 9.4 - - - - - - -
29/11:19pm 25.7 SE 21 31 1016.0 - 8.4 - - - - - - -
29/11:07pm 25.5 SE 17 19 1016.1 - 8.4 - - - - - - -
29/11:00pm 25.2 S 23 27 1015.9 - 8.4 - - - - - - -
29/10:58pm 25.2 S 25 27 1016.0 - 8.4 - - - - - - -
29/10:30pm 25.4 SE 21 24 1016.1 - 7.4 - - - - - - -
29/10:00pm 25.2 ESE 22 29 1016.3 - 6.8 - - - - - - -
29/09:31pm 25.5 ESE 17 27 1016.1 - 5.4 - - - - - - -
29/09:30pm 25.3 ESE 16 24 1016.0 - 5.2 - - - - - - -
29/09:00pm 25.8 E 20 28 1015.8 - 1.6 - - - - - - -
29/08:53pm 26.2 E 18 22 1015.7 - 0.4 - - - - - - -
29/08:37pm 27.4 ESE 21 32 1015.5 - 0.0 - - - - - - -
29/08:30pm 27.9 ESE 19 25 1015.6 - 0.0 - - - - - - -
29/08:00pm 28.1 SSE 24 28 1015.3 - 0.0 - - - - - - -
29/07:30pm 27.9 SE 24 27 1015.0 - 0.0 - - - - - - -
29/07:00pm 27.9 SE 22 25 1014.9 - 0.0 - - - - - - -
29/06:30pm 28.0 SE 21 25 1014.6 - 0.0 - - - - - - -
29/06:00pm 28.2 SE 20 24 1013.9 - 0.0 - - - - - - -
29/05:30pm 28.4 SE 19 21 1013.9 - 0.0 - - - - - - -
29/05:00pm 28.5 SE 17 21 1013.7 - 0.0 - - - - - - -
29/04:30pm 28.8 SE 18 21 1013.7 - 0.0 - - - - - - -
29/04:00pm 29.3 SE 18 22 1013.6 - 0.0 - - - - - - -
29/03:30pm 29.7 ESE 18 21 1013.6 - 0.0 - - - - - - -
29/03:00pm 29.5 SE 19 22 1013.5 - 0.0 Haze Partly cloudy 12 - - - -
29/02:30pm 29.5 SE 19 23 1013.8 - 0.0 - - - - - - -
29/02:00pm 29.4 SE 20 25 1013.9 - 0.0 - - - - - - -
29/01:30pm 29.3 SE 22 26 1014.4 - 0.0 - - - - - - -
29/01:00pm 29.4 SE 21 25 1014.6 - 0.0 - - - - - - -
29/12:30pm 29.3 SE 23 27 1015.1 - 0.0 - - - - - - -
29/12:00pm 28.3 SE 22 26 1015.4 - 0.0 - - - - - - -
29/11:30am 28.4 SE 22 26 1015.9 - 0.0 - - - - - - -
29/11:00am 28.1 SE 22 26 1016.2 - 0.0 - - - - - - -
29/10:30am 27.5 SE 21 26 1016.4 - 0.0 - - - - - - -
29/10:00am 27.1 SE 21 27 1016.4 - 0.0 - - - - - - -
29/09:30am 26.5 ESE 17 25 1016.2 - - - - - - - - -
29/09:11am 25.6 ESE 19 29 1016.1 - - - - - - - - -
29/09:00am 25.9 SE 20 26 1016.0 - 16.4 Rain Mostly cloudy 5 - - - -
29/08:46am 25.2 SE 15 18 1016.0 - 16.4 - - - - - - -
29/08:40am 25.8 E 20 24 1016.0 - 16.2 - - - - - - -
29/08:38am 26.1 ESE 19 29 1015.9 - 16.2 - - - - - - -
29/08:30am 26.2 ESE 16 22 1015.6 - 16.2 - - - - - - -
29/08:00am 26.3 ESE 17 23 1015.3 - 16.2 - - - - - - -
29/07:44am 26.0 E 17 18 1015.1 - 16.2 - - - - - - -
29/07:33am 25.9 ESE 20 30 1015.0 - 16.2 - - - - - - -
29/07:30am 25.8 ESE 21 30 1015.0 - 16.2 - - - - - - -
 
Date/Time
EST
Temp

°C
Wind Pressure Rain
since 9am
mm
Weather Cloud Vis
km
Sea
Height
m
Swell
Dir
 
Speed
knots
Gust
knots
hPa Trend Height
m
Period
s
Dir
28/05:30am 25.4 S 11 15 1013.8 - 6.6 - - - - - - -
28/05:00am 25.3 SSW 3 3 1013.8 - 2.8 - - - - - - -
28/04:30am 25.4 ESE 8 11 1013.6 - 2.8 - - - - - - -
28/04:00am 26.1 SSW 9 11 1013.5 - 2.6 - - - - - - -
28/03:30am 26.2 S 13 15 1013.5 - 2.6 - - - - - - -
28/03:00am 25.5 S 11 14 1013.5 - 2.6 - - - - - - -
28/02:30am 26.0 SSE 12 15 1013.5 - 2.6 - - - - - - -
28/02:00am 26.9 SSE 10 11 1013.7 - 0.6 - - - - - - -
28/01:30am 26.8 SSE 11 13 1013.9 - 0.6 - - - - - - -
28/01:00am 26.1 ESE 11 12 1014.2 - 0.6 - - - - - - -
28/12:30am 26.5 SE 11 14 1014.5 - 0.6 - - - - - - -
28/12:00am 26.1 SSE 11 16 1014.6 - 0.6 - - - - - - -
 
Date/Time
EST
Temp

°C
Wind Pressure Rain
since 9am
mm
Weather Cloud Vis
km
Sea
Height
m
Swell
Dir
 
Speed
knots
Gust
knots
hPa Trend Height
m
Period
s
Dir
27/11:30pm 25.4 SE 8 12 1014.8 - 0.6 - - - - - - -
27/11:23pm 25.6 S 8 11 1014.9 - 0.6 - - - - - - -
27/11:17pm 26.1 SE 21 24 1015.0 - 0.4 - - - - - - -
27/11:00pm 27.2 SE 10 12 1015.1 - 0.0 - - - - - - -
27/10:30pm 27.5 SE 9 11 1015.2 - 0.0 - - - - - - -
27/10:00pm 27.1 SE 14 18 1015.5 - 0.0 - - - - - - -
27/09:30pm 28.0 SE 11 14 1015.6 - 0.0 - - - - - - -
27/09:00pm 27.9 SE 12 14 1015.2 - 0.0 - - - - - - -
27/08:30pm 28.1 SE 11 14 1014.9 - 0.0 - - - - - - -
27/08:00pm 27.9 SE 11 14 1014.6 - 0.0 - - - - - - -
27/07:30pm 27.8 ESE 10 12 1014.2 - 0.0 - - - - - - -
27/07:00pm 27.8 SE 9 12 1013.9 - 0.0 - - - - - - -
27/06:30pm 28.1 SE 9 10 1013.5 - 0.0 - - - - - - -
27/06:00pm 28.4 SE 10 12 1013.1 - 0.0 - - - - - - -
27/05:30pm 28.7 SSE 8 10 1013.2 - 0.0 - - - - - - -
27/05:00pm 29.2 SE 9 11 1013.0 - 0.0 - - - - - - -
27/04:30pm 29.9 SE 8 11 1012.9 - 0.0 - - - - - - -
27/04:00pm 30.5 SE 8 10 1012.9 - 0.0 - - - - - - -

Other Formats:

Comma delimited format used in spreadsheet applications
http://www.bom.gov.au/fwo/IDQ60701/IDQ60701.94285.axf

JavaScript Object Notation format (JSON) in row-major order
http://www.bom.gov.au/fwo/IDQ60701/IDQ60701.94285.json